Time;durP1;ratioP1;P1;durP2;ratioP2;P2;SDS_P1;SDS_P2;PMS_P1;PMS_P2;Temp;Humidity;BMP_temperature;BMP_pressure;BME280_temperature;BME280_humidity;BME280_pressure;Samples;Min_cycle;Max_cycle;Signal;HPM_P1;HPM_P2
2022/05/03 00:01:55;;;;;;;9.70;3.25;;;11.40;53.70;;;;;;9183639;19;20006;-70
2022/05/03 00:05:07;;;;;;;6.57;3.03;;;11.40;53.80;;;;;;9182461;19;20025;-70
2022/05/03 00:08:22;;;;;;;4.40;2.80;;;11.30;53.70;;;;;;9182301;19;20326;-71
2022/05/03 00:11:35;;;;;;;7.43;3.03;;;11.30;53.80;;;;;;9184122;19;20015;-71
2022/05/03 00:14:47;;;;;;;4.25;2.80;;;11.20;53.90;;;;;;9184680;19;20050;-70
2022/05/03 00:17:56;;;;;;;9.70;2.92;;;11.20;54.00;;;;;;9182668;19;20018;-70
2022/05/03 00:21:11;;;;;;;6.85;2.88;;;11.10;53.90;;;;;;9182859;19;20608;-70
2022/05/03 00:24:17;;;;;;;4.65;2.72;;;11.10;54.00;;;;;;9183894;19;20480;-68
2022/05/03 00:27:26;;;;;;;4.68;3.15;;;11.00;54.00;;;;;;9180508;19;20017;-71
2022/05/03 00:30:35;;;;;;;5.22;2.88;;;11.00;54.10;;;;;;9179667;19;20021;-70
2022/05/03 00:33:42;;;;;;;7.05;3.42;;;10.90;54.20;;;;;;9179937;19;20052;-70
2022/05/03 00:36:49;;;;;;;4.32;2.72;;;10.90;54.30;;;;;;9182376;19;20019;-69
2022/05/03 00:39:58;;;;;;;11.02;2.80;;;10.80;54.30;;;;;;9183414;19;20026;-71
2022/05/03 00:43:16;;;;;;;4.32;2.60;;;10.80;54.40;;;;;;9182612;19;20361;-69
2022/05/03 00:46:25;;;;;;;4.65;2.90;;;10.80;54.60;;;;;;9180759;19;20022;-69
2022/05/03 00:49:45;;;;;;;9.35;2.90;;;10.70;54.50;;;;;;9181629;19;20002;-70
2022/05/03 00:52:57;;;;;;;9.00;3.55;;;10.70;54.60;;;;;;9182663;19;20360;-71
2022/05/03 00:56:18;;;;;;;4.53;3.05;;;10.70;54.70;;;;;;9176842;19;20017;-71
2022/05/03 00:59:42;;;;;;;9.63;3.13;;;10.60;54.80;;;;;;9181350;19;20495;-70
2022/05/03 01:03:12;;;;;;;11.75;3.70;;;10.50;54.80;;;;;;9180546;19;20026;-70
2022/05/03 01:06:24;;;;;;;7.82;3.65;;;9.10;53.90;;;;;;9180898;19;20017;-71
2022/05/03 01:09:36;;;;;;;8.48;4.65;;;10.50;54.80;;;;;;9180186;19;20011;-70
2022/05/03 01:12:56;;;;;;;8.63;3.72;;;10.40;54.90;;;;;;9179934;19;20018;-71
2022/05/03 01:16:16;;;;;;;5.30;3.33;;;10.40;55.00;;;;;;9180699;19;20099;-70
2022/05/03 01:19:39;;;;;;;9.57;3.60;;;10.30;55.10;;;;;;9180835;19;20471;-72
2022/05/03 01:23:11;;;;;;;9.43;3.47;;;10.30;55.20;;;;;;9180110;19;20010;-71
2022/05/03 01:26:47;;;;;;;6.25;3.63;;;10.30;55.20;;;;;;9179428;19;20039;-72
2022/05/03 01:30:01;;;;;;;6.93;3.30;;;10.20;55.20;;;;;;9177453;19;20483;-70
2022/05/03 01:33:12;;;;;;;5.88;3.40;;;10.10;55.30;;;;;;9179905;19;20029;-69
2022/05/03 01:36:29;;;;;;;6.88;3.35;;;10.10;55.20;;;;;;9178404;19;20002;-70
2022/05/03 01:39:50;;;;;;;6.35;3.85;;;10.10;55.40;;;;;;9179171;19;20023;-70
2022/05/03 01:43:15;;;;;;;9.18;3.50;;;10.00;55.50;;;;;;9180973;19;20021;-68
2022/05/03 01:46:30;;;;;;;8.85;4.00;;;10.00;55.70;;;;;;9178837;19;20014;-70
2022/05/03 01:53:19;;;;;;;8.25;4.05;;;9.90;55.70;;;;;;9178893;19;20014;-70
2022/05/03 01:56:32;;;;;;;8.95;4.88;;;9.90;55.70;;;;;;9177183;19;20007;-70
2022/05/03 01:59:47;;;;;;;9.77;4.20;;;9.80;55.70;;;;;;9180643;19;20021;-69
2022/05/03 02:03:05;;;;;;;6.63;3.97;;;9.80;55.70;;;;;;9177785;19;20105;-70
2022/05/03 02:06:13;;;;;;;5.80;4.03;;;9.80;56.00;;;;;;9178653;19;20038;-70
2022/05/03 02:09:30;;;;;;;10.55;4.50;;;9.70;55.90;;;;;;9175894;19;20006;-71
2022/05/03 02:12:46;;;;;;;8.43;4.22;;;9.70;56.10;;;;;;9180725;19;20044;-71
2022/05/03 02:15:52;;;;;;;8.30;4.53;;;9.70;56.60;;;;;;9180344;19;20010;-70
2022/05/03 02:19:23;;;;;;;9.07;4.28;;;9.60;56.10;;;;;;9177503;19;20032;-71
2022/05/03 02:22:52;;;;;;;11.45;5.47;;;9.60;56.40;;;;;;9179712;19;20025;-69
2022/05/03 02:26:31;;;;;;;9.35;4.53;;;9.50;56.40;;;;;;9178055;19;20082;-69
2022/05/03 02:29:48;;;;;;;10.30;4.40;;;9.50;56.50;;;;;;9176419;19;20093;-68
2022/05/03 02:33:02;;;;;;;10.25;4.53;;;9.50;56.40;;;;;;9177604;19;20090;-69
2022/05/03 02:36:17;;;;;;;9.10;4.15;;;9.60;56.50;;;;;;9178125;19;20018;-71
2022/05/03 02:39:23;;;;;;;;;;;9.40;56.50;;;;;;9179485;19;20023;-70
2022/05/03 02:42:28;;;;;;;11.32;4.82;;;9.40;56.20;;;;;;9179287;19;20364;-69
2022/05/03 02:45:36;;;;;;;5.70;4.40;;;9.40;56.20;;;;;;9178365;19;20014;-69
2022/05/03 02:48:55;;;;;;;9.80;4.38;;;9.30;56.40;;;;;;9182272;19;20015;-69
2022/05/03 02:52:12;;;;;;;8.48;4.40;;;9.40;56.60;;;;;;9187464;19;20014;-70
2022/05/03 02:55:23;;;;;;;8.30;4.40;;;9.30;56.70;;;;;;9182087;19;20017;-69
2022/05/03 02:58:52;;;;;;;14.10;5.15;;;9.30;56.80;;;;;;9185551;19;20045;-71
2022/05/03 03:02:09;;;;;;;10.90;4.38;;;9.30;56.90;;;;;;9185430;19;20014;-69
2022/05/03 03:05:17;;;;;;;9.35;4.13;;;9.20;56.90;;;;;;9187063;19;20014;-70
2022/05/03 03:08:31;;;;;;;9.30;4.45;;;9.20;56.80;;;;;;9183670;19;20018;-70
2022/05/03 03:11:51;;;;;;;8.20;4.60;;;9.20;56.90;;;;;;9182356;19;20014;-69
2022/05/03 03:15:13;;;;;;;10.80;4.70;;;9.10;56.90;;;;;;9185306;19;20360;-69
2022/05/03 03:18:23;;;;;;;6.15;4.28;;;9.10;57.00;;;;;;9184784;19;20025;-69
2022/05/03 03:21:38;;;;;;;7.72;4.50;;;9.00;57.00;;;;;;9185524;19;20017;-70
2022/05/03 03:24:47;;;;;;;8.13;4.50;;;9.00;57.10;;;;;;9184112;19;20018;-70
2022/05/03 03:27:56;;;;;;;9.50;4.40;;;8.90;57.10;;;;;;9185156;19;20018;-69
2022/05/03 03:31:03;;;;;;;7.45;4.75;;;8.90;57.10;;;;;;9184404;19;20023;-70
2022/05/03 03:34:09;;;;;;;7.10;4.30;;;8.90;57.20;;;;;;9186796;19;20014;-69
2022/05/03 03:37:16;;;;;;;8.50;4.85;;;8.80;57.30;;;;;;9184146;19;20030;-70
2022/05/03 03:40:28;;;;;;;7.20;4.53;;;8.70;57.30;;;;;;9186294;19;20022;-69
2022/05/03 03:43:36;;;;;;;;;;;8.70;57.60;;;;;;9184405;19;20384;-69
2022/05/03 03:46:43;;;;;;;9.77;4.70;;;8.70;57.30;;;;;;9183938;19;19923;-70
2022/05/03 03:49:52;;;;;;;7.60;5.25;;;8.60;57.30;;;;;;9183410;19;20010;-70
2022/05/03 03:52:58;;;;;;;16.10;4.57;;;8.60;57.50;;;;;;9183755;19;20821;-69
2022/05/03 03:56:10;;;;;;;14.43;5.43;;;8.60;57.60;;;;;;9178918;19;20011;-70
2022/05/03 03:59:16;;;;;;;8.73;5.95;;;8.50;57.80;;;;;;9180257;19;20014;-70
2022/05/03 04:02:24;;;;;;;12.98;5.43;;;8.50;57.80;;;;;;9179462;19;20021;-69
2022/05/03 04:05:36;;;;;;;9.70;5.72;;;8.50;57.90;;;;;;9181670;19;20387;-70
2022/05/03 04:08:41;;;;;;;9.30;5.35;;;8.40;57.90;;;;;;9179252;19;20048;-69
2022/05/03 04:11:50;;;;;;;11.95;5.82;;;8.40;58.00;;;;;;9178149;19;20472;-69
2022/05/03 04:14:58;;;;;;;11.88;6.60;;;8.40;58.20;;;;;;9180953;19;20014;-70
2022/05/03 04:18:07;;;;;;;13.15;6.60;;;8.30;58.20;;;;;;9178566;19;20052;-69
2022/05/03 04:21:17;;;;;;;13.35;5.93;;;8.30;58.30;;;;;;9180001;19;20124;-69
2022/05/03 04:24:22;;;;;;;10.48;6.18;;;8.30;58.40;;;;;;9181281;19;20007;-70
2022/05/03 04:27:30;;;;;;;8.60;5.72;;;8.30;58.50;;;;;;9179931;19;20025;-70
2022/05/03 04:30:36;;;;;;;11.27;6.13;;;8.30;58.60;;;;;;9178460;19;20371;-70
2022/05/03 04:33:41;;;;;;;13.55;6.22;;;8.20;58.60;;;;;;9179563;19;20030;-69
2022/05/03 04:36:46;;;;;;;17.35;6.18;;;8.20;58.70;;;;;;9181913;19;20015;-70
2022/05/03 04:39:51;;;;;;;14.23;6.57;;;8.20;58.80;;;;;;9181799;19;20078;-69
2022/05/03 04:43:02;;;;;;;11.02;7.00;;;8.20;58.90;;;;;;9180909;19;20021;-69
2022/05/03 04:46:08;;;;;;;10.45;6.55;;;8.20;59.00;;;;;;9179119;19;20044;-71
2022/05/03 04:49:13;;;;;;;11.27;7.35;;;8.20;59.00;;;;;;9178854;19;20022;-68
2022/05/03 04:52:18;;;;;;;12.60;6.57;;;8.10;59.10;;;;;;9177066;19;20021;-69
2022/05/03 04:55:27;;;;;;;12.15;6.68;;;8.10;59.20;;;;;;9174788;19;20023;-69
2022/05/03 04:58:45;;;;;;;13.10;7.03;;;8.20;59.40;;;;;;9178194;19;20019;-70
2022/05/03 05:01:56;;;;;;;11.60;7.00;;;8.10;59.50;;;;;;9178390;19;20387;-70
2022/05/03 05:05:02;;;;;;;11.32;6.70;;;8.20;59.40;;;;;;9178562;19;20037;-70
2022/05/03 05:08:11;;;;;;;9.13;6.28;;;8.10;59.50;;;;;;9178141;19;20017;-70
2022/05/03 05:11:17;;;;;;;10.63;6.75;;;8.10;59.60;;;;;;9179106;19;20022;-70
2022/05/03 05:14:24;;;;;;;14.07;7.22;;;8.10;59.60;;;;;;9177105;19;20034;-71
2022/05/03 05:17:37;;;;;;;15.60;7.72;;;8.10;59.90;;;;;;9178551;19;20021;-71
2022/05/03 05:20:45;;;;;;;12.63;7.30;;;8.10;60.10;;;;;;9178326;19;20025;-70
2022/05/03 05:23:51;;;;;;;14.43;7.13;;;8.20;60.00;;;;;;9178092;19;20368;-70
2022/05/03 05:27:03;;;;;;;14.35;7.30;;;8.10;60.00;;;;;;9175461;19;20396;-69
2022/05/03 05:30:14;;;;;;;13.18;7.55;;;8.20;60.20;;;;;;9175713;19;20018;-69
2022/05/03 05:33:20;;;;;;;13.43;7.85;;;8.20;60.40;;;;;;9177513;19;20027;-70
2022/05/03 05:36:25;;;;;;;13.90;7.63;;;8.20;60.40;;;;;;9175955;19;20048;-72
2022/05/03 05:39:31;;;;;;;11.65;7.57;;;8.20;60.50;;;;;;9176760;19;20014;-71
2022/05/03 05:42:36;;;;;;;22.85;8.23;;;8.30;60.60;;;;;;9177387;19;20014;-71
2022/05/03 05:45:45;;;;;;;18.85;8.27;;;8.30;60.70;;;;;;9173174;19;20029;-69
2022/05/03 05:48:53;;;;;;;16.88;7.10;;;8.40;61.00;;;;;;9173913;19;20495;-71
2022/05/03 05:53:31;;;;;;;14.63;7.88;;;8.50;61.00;;;;;;9174581;19;20053;-69
2022/05/03 05:55:22;;;;;;;14.95;8.18;;;8.60;61.20;;;;;;9169196;19;20416;-70
2022/05/03 05:58:28;;;;;;;12.77;7.35;;;8.70;61.10;;;;;;9172198;19;20018;-69
2022/05/03 06:01:42;;;;;;;11.80;7.47;;;8.80;61.30;;;;;;9177351;19;20439;-70
2022/05/03 06:04:47;;;;;;;15.50;7.53;;;9.00;61.70;;;;;;9178284;19;20349;-73
2022/05/03 06:07:58;;;;;;;12.63;7.10;;;9.10;61.50;;;;;;9177289;19;20018;-71
2022/05/03 06:11:03;;;;;;;12.43;6.50;;;9.30;61.60;;;;;;9172808;19;20084;-69
2022/05/03 06:17:29;;;;;;;17.45;6.20;;;9.70;61.80;;;;;;9166480;19;20018;-70
2022/05/03 06:20:34;;;;;;;10.18;5.82;;;9.90;61.80;;;;;;9166474;19;20024;-71
2022/05/03 06:23:40;;;;;;;13.38;6.78;;;10.10;61.80;;;;;;9169863;19;21102;-70
2022/05/03 06:26:51;;;;;;;13.02;6.32;;;10.30;61.90;;;;;;9174414;19;20019;-71
2022/05/03 06:29:57;;;;;;;12.48;5.90;;;10.50;61.90;;;;;;9176451;19;20030;-70
2022/05/03 06:33:05;;;;;;;8.98;5.13;;;10.70;61.80;;;;;;9178251;19;20026;-71
2022/05/03 06:36:10;;;;;;;11.82;5.45;;;10.90;62.00;;;;;;9183454;19;20025;-71
2022/05/03 06:39:21;;;;;;;10.25;4.97;;;11.20;61.90;;;;;;9181089;19;20363;-69
2022/05/03 06:42:48;;;;;;;7.45;4.25;;;11.40;62.00;;;;;;9179502;19;20014;-70
2022/05/03 06:45:56;;;;;;;8.23;4.07;;;11.70;61.80;;;;;;9178744;19;20049;-72
2022/05/03 06:49:13;;;;;;;9.20;4.22;;;11.80;61.90;;;;;;9185203;19;20041;-71
2022/05/03 06:52:20;;;;;;;6.90;4.53;;;12.10;61.30;;;;;;9177937;19;20607;-71
2022/05/03 06:55:25;;;;;;;12.25;4.50;;;12.40;61.60;;;;;;9178660;19;20022;-69
2022/05/03 06:58:30;;;;;;;11.82;5.63;;;12.60;61.40;;;;;;9181430;19;20143;-70
2022/05/03 07:01:45;;;;;;;10.07;5.85;;;12.80;61.20;;;;;;9183418;19;20029;-69
2022/05/03 07:04:55;;;;;;;12.88;7.00;;;13.00;61.10;;;;;;9176131;19;20015;-70
2022/05/03 07:08:01;;;;;;;13.05;6.43;;;13.20;61.00;;;;;;9176556;19;20026;-70
2022/05/03 07:11:15;;;;;;;10.52;6.55;;;13.40;60.90;;;;;;9184371;19;20044;-70
2022/05/03 07:14:22;;;;;;;12.57;7.50;;;13.60;60.80;;;;;;9185485;19;20468;-70
2022/05/03 07:24:12;;;;;;;15.00;6.93;;;14.30;60.70;;;;;;9184645;19;20038;-69
2022/05/03 07:27:19;;;;;;;12.80;7.10;;;14.40;60.50;;;;;;9183344;19;20504;-72
2022/05/03 07:30:33;;;;;;;17.67;8.02;;;14.60;60.40;;;;;;9185932;19;20018;-73
2022/05/03 07:33:41;;;;;;;13.38;8.40;;;14.80;60.30;;;;;;9181463;19;20038;-74
2022/05/03 07:36:51;;;;;;;19.38;7.50;;;15.00;60.20;;;;;;9183861;19;20468;-70
2022/05/03 07:39:56;;;;;;;9.73;6.97;;;15.20;60.00;;;;;;9183999;19;20011;-71
2022/05/03 07:43:03;;;;;;;11.57;7.40;;;15.40;59.80;;;;;;9184986;19;20060;-70
2022/05/03 07:46:16;;;;;;;14.57;6.85;;;15.50;59.70;;;;;;9186050;19;20082;-72
2022/05/03 07:49:21;;;;;;;9.45;6.70;;;15.80;59.50;;;;;;9183788;19;20102;-71
2022/05/03 07:52:30;;;;;;;14.55;7.00;;;15.90;59.30;;;;;;9184127;19;20384;-71
2022/05/03 07:55:38;;;;;;;12.68;6.40;;;16.10;59.20;;;;;;9178726;19;20352;-72
2022/05/03 07:58:43;;;;;;;14.00;7.15;;;16.20;59.00;;;;;;9185055;19;20527;-72
2022/05/03 08:01:48;;;;;;;15.48;7.22;;;16.40;58.80;;;;;;9183110;19;20035;-70
2022/05/03 08:04:54;;;;;;;13.57;8.18;;;16.50;58.70;;;;;;9180659;19;20022;-70
2022/05/03 08:08:02;;;;;;;18.65;7.85;;;16.70;58.60;;;;;;9181995;19;20484;-72
2022/05/03 08:11:09;;;;;;;14.30;8.02;;;16.90;58.40;;;;;;9182572;19;20021;-72
2022/05/03 08:14:14;;;;;;;13.30;7.10;;;17.00;58.20;;;;;;9180092;19;20029;-72
2022/05/03 08:17:28;;;;;;;17.58;8.50;;;17.20;58.00;;;;;;9182119;19;20065;-72
2022/05/03 08:20:33;;;;;;;15.30;7.60;;;17.30;57.90;;;;;;9182985;19;20014;-74
2022/05/03 08:23:41;;;;;;;13.45;7.82;;;17.50;57.80;;;;;;9177311;19;20029;-74
2022/05/03 08:26:47;;;;;;;14.13;8.13;;;17.70;57.70;;;;;;9182597;19;20018;-79
2022/05/03 08:29:59;;;;;;;18.02;8.18;;;17.90;57.50;;;;;;9182954;19;20060;-75
2022/05/03 08:33:08;;;;;;;13.57;8.48;;;18.00;57.30;;;;;;9180583;19;20019;-77
2022/05/03 08:36:13;;;;;;;12.98;8.35;;;18.20;57.10;;;;;;9182397;19;20501;-74
2022/05/03 08:42:40;;;;;;;13.50;9.00;;;18.50;56.80;;;;;;9182188;19;20381;-77
2022/05/03 08:45:50;;;;;;;13.07;8.50;;;18.70;56.70;;;;;;9181069;19;20022;-75
2022/05/03 08:48:59;;;;;;;18.02;9.40;;;18.80;56.40;;;;;;9181759;19;20498;-74
2022/05/03 08:52:09;;;;;;;16.83;9.07;;;18.90;56.40;;;;;;9181344;19;20104;-75
2022/05/03 08:55:18;;;;;;;16.02;9.73;;;19.00;56.30;;;;;;9178678;19;20829;-75
2022/05/03 08:58:25;;;;;;;21.15;10.23;;;19.10;56.20;;;;;;9180664;19;20353;-75
2022/05/03 09:01:34;;;;;;;16.58;9.70;;;19.20;56.00;;;;;;9178535;19;20021;-76
2022/05/03 09:04:42;;;;;;;17.52;10.27;;;19.30;56.00;;;;;;9180437;19;20011;-77
2022/05/03 09:07:51;;;;;;;16.85;10.60;;;19.30;55.80;;;;;;9181003;19;20014;-75
2022/05/03 09:10:59;;;;;;;15.60;11.73;;;19.40;55.60;;;;;;9182765;19;20495;-76
2022/05/03 09:14:37;;;;;;;20.65;12.38;;;19.40;55.50;;;;;;9179395;19;20014;-74
2022/05/03 09:17:46;;;;;;;20.42;11.85;;;19.40;55.30;;;;;;9180831;19;20348;-73
2022/05/03 09:24:10;;;;;;;21.25;12.85;;;19.30;55.40;;;;;;9180784;19;20387;-70
2022/05/03 09:27:23;;;;;;;19.23;12.48;;;19.40;55.30;;;;;;9181989;19;20476;-73
2022/05/03 09:30:28;;;;;;;30.05;13.07;;;19.30;55.30;;;;;;9179765;19;20038;-73
2022/05/03 09:33:33;;;;;;;27.17;14.15;;;19.30;55.40;;;;;;9177820;19;20021;-72
2022/05/03 09:36:49;;;;;;;18.90;12.77;;;19.40;55.40;;;;;;9178024;19;20476;-74
2022/05/03 09:40:12;;;;;;;21.23;13.90;;;19.40;55.30;;;;;;9180523;19;20021;-73
2022/05/03 09:43:20;;;;;;;20.80;13.75;;;19.50;55.40;;;;;;9182076;19;20007;-76
2022/05/03 09:46:26;;;;;;;27.02;14.80;;;19.50;55.40;;;;;;9177496;19;20029;-75
2022/05/03 09:49:38;;;;;;;26.25;15.77;;;19.50;55.40;;;;;;9179039;19;20480;-75
2022/05/03 09:52:45;;;;;;;24.88;14.40;;;19.60;55.30;;;;;;9178281;19;20350;-73
2022/05/03 09:55:52;;;;;;;20.27;13.57;;;19.60;55.30;;;;;;9173067;19;20030;-71
2022/05/03 09:59:05;;;;;;;19.65;12.90;;;19.60;55.20;;;;;;9182757;19;20014;-73
2022/05/03 10:02:11;;;;;;;21.80;11.65;;;19.50;55.10;;;;;;9188086;19;20018;-76
2022/05/03 10:05:25;;;;;;;22.52;13.82;;;19.50;55.10;;;;;;9187757;19;20031;-77
2022/05/03 10:08:31;;;;;;;15.93;10.70;;;19.50;55.10;;;;;;9186859;19;20602;-78
2022/05/03 10:11:40;;;;;;;16.00;10.15;;;19.40;55.00;;;;;;9187258;19;20010;-77
2022/05/03 10:14:52;;;;;;;19.35;11.13;;;19.40;55.10;;;;;;9187162;19;20110;-79
2022/05/03 10:21:23;;;;;;;17.83;11.82;;;19.40;55.10;;;;;;9188454;19;20010;-74
2022/05/03 10:24:33;;;;;;;15.82;10.60;;;19.40;55.00;;;;;;9187756;19;20011;-77
2022/05/03 10:27:57;;;;;;;15.25;10.23;;;19.40;55.10;;;;;;9188131;19;20018;-77
2022/05/03 10:31:16;;;;;;;15.77;9.95;;;19.40;55.00;;;;;;9187017;19;20022;-77
2022/05/03 10:34:52;;;;;;;18.77;10.68;;;19.50;55.10;;;;;;9186470;19;20014;-76
2022/05/03 10:38:16;;;;;;;15.73;9.30;;;19.40;55.00;;;;;;9188524;19;20010;-81
2022/05/03 10:41:27;;;;;;;14.32;8.68;;;19.50;55.10;;;;;;9185675;19;20021;-78
2022/05/03 10:45:03;;;;;;;11.75;7.35;;;19.60;55.00;;;;;;9185559;19;20052;-77
2022/05/03 10:48:25;;;;;;;10.70;7.32;;;19.70;54.60;;;;;;9186275;19;20026;-74
2022/05/03 10:51:31;;;;;;;13.13;9.15;;;19.70;54.60;;;;;;9187598;19;20487;-75
2022/05/03 10:55:06;;;;;;;19.17;10.52;;;19.80;54.60;;;;;;9184855;19;20017;-76
2022/05/03 10:58:31;;;;;;;21.85;12.43;;;19.80;54.50;;;;;;9187149;19;20010;-76
2022/05/03 11:02:07;;;;;;;23.17;12.50;;;19.90;54.50;;;;;;9186165;19;20089;-76
2022/05/03 11:05:22;;;;;;;25.77;13.07;;;19.90;54.60;;;;;;9185601;19;20368;-78
2022/05/03 11:08:27;;;;;;;20.98;13.30;;;19.90;54.60;;;;;;9183936;19;20014;-70
2022/05/03 11:11:52;;;;;;;25.67;14.75;;;19.80;54.60;;;;;;9184450;19;20011;-71
2022/05/03 11:14:58;;;;;;;25.27;14.68;;;19.80;54.70;;;;;;9183318;19;20022;-71
2022/05/03 11:18:06;;;;;;;22.58;13.27;;;19.70;54.70;;;;;;9185594;19;20364;-72
2022/05/03 11:21:20;;;;;;;27.42;15.68;;;19.70;54.90;;;;;;9185522;19;20098;-71
2022/05/03 11:24:33;;;;;;;29.75;16.60;;;19.60;54.90;;;;;;9185874;19;20022;-71
2022/05/03 11:27:42;;;;;;;27.55;15.95;;;19.60;55.10;;;;;;9184170;19;20023;-70
2022/05/03 11:34:10;;;;;;;43.78;20.95;;;19.50;55.20;;;;;;9182721;19;20022;-71
2022/05/03 11:37:23;;;;;;;37.53;19.90;;;19.50;55.30;;;;;;9186150;19;20010;-72
2022/05/03 11:40:29;;;;;;;43.53;18.67;;;19.50;55.30;;;;;;9186198;19;20444;-73
2022/05/03 11:43:36;;;;;;;37.53;19.48;;;19.50;55.40;;;;;;9182218;19;20364;-72
2022/05/03 11:46:45;;;;;;;36.03;17.85;;;19.50;55.40;;;;;;9183183;19;20497;-73
2022/05/03 11:49:54;;;;;;;34.60;17.02;;;19.50;55.50;;;;;;9180735;19;20022;-71
2022/05/03 11:56:26;;;;;;;37.10;17.75;;;19.40;55.60;;;;;;9179330;19;20566;-73
2022/05/03 11:59:37;;;;;;;44.28;19.83;;;19.40;55.60;;;;;;9183225;19;20014;-73
2022/05/03 12:02:45;;;;;;;38.60;17.90;;;19.40;55.60;;;;;;9182591;19;20010;-73
2022/05/03 12:06:01;;;;;;;40.70;17.80;;;19.40;55.70;;;;;;9180128;19;20033;-72
2022/05/03 12:09:11;;;;;;;40.58;19.10;;;19.30;55.70;;;;;;9176045;19;20022;-72
2022/05/03 12:15:45;;;;;;;38.22;17.05;;;19.30;55.90;;;;;;9177356;19;20031;-71
2022/05/03 12:18:57;;;;;;;30.65;17.02;;;19.20;55.80;;;;;;9180490;19;20022;-71
2022/05/03 12:22:12;;;;;;;30.95;15.82;;;19.10;55.80;;;;;;9181943;19;20090;-72
2022/05/03 12:25:31;;;;;;;30.75;15.52;;;19.10;55.90;;;;;;9182054;19;20011;-72
2022/05/03 12:28:40;;;;;;;30.10;13.70;;;19.00;56.00;;;;;;9181832;19;20018;-73
2022/05/03 12:31:46;;;;;;;27.27;12.27;;;19.00;56.00;;;;;;9182558;19;20014;-71
2022/05/03 12:35:01;;;;;;;29.80;13.30;;;18.90;56.10;;;;;;9180037;19;20089;-72
2022/05/03 12:38:16;;;;;;;;;;;18.80;56.20;;;;;;9182654;19;20044;-69
2022/05/03 12:41:31;;;;;;;27.80;12.02;;;18.80;56.10;;;;;;9181441;19;19910;-70
2022/05/03 12:44:54;;;;;;;24.20;11.65;;;18.70;56.20;;;;;;9181915;19;20030;-72
2022/05/03 12:47:59;;;;;;;23.85;11.15;;;18.70;56.30;;;;;;9181161;19;20018;-71
2022/05/03 12:51:06;;;;;;;18.85;11.07;;;18.60;56.30;;;;;;9182860;19;20010;-71
2022/05/03 12:54:13;;;;;;;21.38;9.45;;;18.60;56.30;;;;;;9179322;19;20018;-70
2022/05/03 13:00:40;;;;;;;17.05;8.57;;;18.50;56.40;;;;;;9176127;19;20022;-71
2022/05/03 13:03:54;;;;;;;25.95;9.20;;;18.50;56.40;;;;;;9176466;19;20111;-69
2022/05/03 13:07:03;;;;;;;18.10;8.43;;;18.30;56.40;;;;;;9175616;19;20081;-71
2022/05/03 13:10:10;;;;;;;27.15;7.97;;;18.20;56.40;;;;;;9175937;19;20549;-71
2022/05/03 13:13:18;;;;;;;24.95;9.15;;;18.10;56.50;;;;;;9178274;19;20011;-72
2022/05/03 13:16:27;;;;;;;19.60;8.30;;;18.10;56.70;;;;;;9178762;19;20022;-72
2022/05/03 13:19:33;;;;;;;19.42;8.38;;;18.00;56.70;;;;;;9180155;19;20508;-69
2022/05/03 13:22:41;;;;;;;17.77;8.15;;;18.00;56.70;;;;;;9181526;19;20069;-72
2022/05/03 13:25:46;;;;;;;22.60;7.78;;;18.00;56.80;;;;;;9179568;19;20394;-69
2022/05/03 13:28:55;;;;;;;20.92;8.27;;;18.00;56.90;;;;;;9180797;19;20391;-73
2022/05/03 13:32:06;;;;;;;28.83;8.10;;;17.90;56.90;;;;;;9178914;19;20011;-71
2022/05/03 13:35:14;;;;;;;18.15;7.35;;;17.90;56.80;;;;;;9177695;19;20085;-71
2022/05/03 13:41:37;;;;;;;19.83;7.93;;;17.90;57.40;;;;;;9179321;19;20385;-70
2022/05/03 13:44:45;;;;;;;15.57;5.50;;;17.90;56.80;;;;;;9177901;19;20010;-70
2022/05/03 13:47:53;;;;;;;15.52;6.97;;;17.80;56.80;;;;;;9179064;19;20025;-73
2022/05/03 13:50:58;;;;;;;23.33;7.35;;;17.80;56.80;;;;;;9181473;19;20014;-71
2022/05/03 13:54:03;;;;;;;18.40;6.43;;;17.80;56.80;;;;;;9178365;19;20018;-72
2022/05/03 13:57:14;;;;;;;19.38;6.72;;;17.80;56.90;;;;;;9175720;19;20040;-72
2022/05/03 14:00:27;;;;;;;16.92;6.15;;;17.80;56.90;;;;;;9179496;19;20480;-70
2022/05/03 14:03:32;;;;;;;22.38;6.57;;;17.70;57.40;;;;;;9178335;19;20010;-70
2022/05/03 14:06:49;;;;;;;21.92;6.13;;;17.80;56.80;;;;;;9178075;19;20015;-71
2022/05/03 14:09:54;;;;;;;28.10;6.85;;;17.80;56.70;;;;;;9177817;19;20106;-70
2022/05/03 14:13:00;;;;;;;22.20;6.43;;;17.70;56.70;;;;;;9177184;19;20025;-71
2022/05/03 14:16:08;;;;;;;21.85;6.90;;;17.80;56.70;;;;;;9176554;19;20026;-71
2022/05/03 14:19:13;;;;;;;19.23;4.90;;;17.80;56.70;;;;;;9180172;19;20090;-72
2022/05/03 14:22:29;;;;;;;12.90;5.40;;;17.80;56.70;;;;;;9177787;19;20010;-70
2022/05/03 14:25:37;;;;;;;15.95;5.22;;;17.80;56.60;;;;;;9179561;19;20049;-70
2022/05/03 14:28:44;;;;;;;14.48;5.65;;;17.90;56.60;;;;;;9177765;19;20053;-70
2022/05/03 14:31:55;;;;;;;17.60;6.03;;;17.90;56.50;;;;;;9177385;19;20014;-70
2022/05/03 14:35:03;;;;;;;13.13;6.07;;;17.90;56.40;;;;;;9176551;19;20015;-70
2022/05/03 14:38:09;;;;;;;19.55;5.72;;;17.90;56.40;;;;;;9175039;19;20014;-71
2022/05/03 14:41:21;;;;;;;17.05;5.20;;;17.90;56.30;;;;;;9177458;19;20018;-71
2022/05/03 14:44:26;;;;;;;22.42;5.80;;;17.90;56.30;;;;;;9173005;19;20011;-71
2022/05/03 14:47:34;;;;;;;14.02;5.13;;;17.90;56.30;;;;;;9182362;19;20011;-71
2022/05/03 14:50:42;;;;;;;10.75;4.85;;;17.90;56.20;;;;;;9185114;19;20345;-72
2022/05/03 14:53:47;;;;;;;10.25;4.75;;;17.90;56.20;;;;;;9185750;19;20018;-71
2022/05/03 15:03:35;;;;;;;17.92;4.85;;;17.90;56.00;;;;;;9174595;19;20014;-70
2022/05/03 15:06:43;;;;;;;15.95;4.82;;;17.90;55.90;;;;;;9177517;19;20015;-71
2022/05/03 15:09:48;;;;;;;13.68;4.50;;;17.90;55.90;;;;;;9175768;19;20029;-70
2022/05/03 15:12:54;;;;;;;11.95;4.82;;;17.80;55.80;;;;;;9179108;19;20017;-72
2022/05/03 15:15:59;;;;;;;18.90;4.47;;;17.80;55.80;;;;;;9178589;19;20023;-70
2022/05/03 15:19:07;;;;;;;12.40;4.75;;;17.80;55.80;;;;;;9181668;19;20018;-71
2022/05/03 15:22:12;;;;;;;12.63;4.53;;;17.70;55.70;;;;;;9177039;19;20018;-71
2022/05/03 15:25:15;;;;;;;17.33;4.07;;;17.70;55.80;;;;;;9175281;19;20029;-69
2022/05/03 15:28:21;;;;;;;15.85;4.70;;;17.60;55.70;;;;;;9175562;19;20018;-72
2022/05/03 15:31:27;;;;;;;15.07;4.80;;;17.60;55.80;;;;;;9173144;19;20022;-70
2022/05/03 15:34:49;;;;;;;11.85;4.03;;;17.50;55.70;;;;;;9171076;19;20027;-72
2022/05/03 15:37:55;;;;;;;8.13;4.35;;;17.50;55.70;;;;;;9173019;19;20048;-70
2022/05/03 15:41:06;;;;;;;13.48;4.32;;;17.40;55.70;;;;;;9172988;19;20018;-71
2022/05/03 15:44:14;;;;;;;8.50;3.85;;;17.40;55.80;;;;;;9173587;19;20018;-71
2022/05/03 15:47:26;;;;;;;12.57;3.97;;;17.30;55.80;;;;;;9173341;19;20030;-71
2022/05/03 15:50:34;;;;;;;10.38;3.47;;;17.40;55.90;;;;;;9173568;19;20057;-70
2022/05/03 15:53:46;;;;;;;10.23;3.83;;;17.30;55.80;;;;;;9178361;19;20010;-70
2022/05/03 15:56:52;;;;;;;10.48;3.53;;;17.30;55.80;;;;;;9171149;19;20026;-70
2022/05/03 15:59:59;;;;;;;9.02;3.95;;;17.30;55.80;;;;;;9177997;19;20014;-71
2022/05/03 16:03:11;;;;;;;8.27;3.45;;;17.20;55.80;;;;;;9179579;19;20486;-71
2022/05/03 16:06:24;;;;;;;12.27;3.35;;;17.20;55.90;;;;;;9177951;19;20060;-69
2022/05/03 16:09:30;;;;;;;6.90;3.25;;;17.20;55.90;;;;;;9176165;19;20022;-70
2022/05/03 16:12:41;;;;;;;9.30;3.03;;;17.10;55.80;;;;;;9179879;19;20419;-72
2022/05/03 16:15:53;;;;;;;7.25;3.22;;;17.10;55.80;;;;;;9169344;19;20021;-70
2022/05/03 16:19:00;;;;;;;10.50;2.92;;;17.10;55.90;;;;;;9171397;19;20361;-70
2022/05/03 16:22:12;;;;;;;11.40;3.78;;;17.10;55.80;;;;;;9172097;19;20026;-74
2022/05/03 16:25:26;;;;;;;13.52;3.80;;;17.10;55.80;;;;;;9174490;19;20019;-71
2022/05/03 16:28:32;;;;;;;11.95;3.65;;;17.10;55.90;;;;;;9173559;19;20496;-71
2022/05/03 16:31:43;;;;;;;18.25;3.75;;;17.00;55.70;;;;;;9172610;19;20059;-69
2022/05/03 16:34:51;;;;;;;9.35;3.78;;;17.00;55.70;;;;;;9177264;19;20021;-72
2022/05/03 16:44:36;;;;;;;12.30;3.13;;;16.90;55.80;;;;;;9175263;19;20010;-70
2022/05/03 16:47:41;;;;;;;6.05;2.80;;;16.90;55.70;;;;;;9175204;19;20498;-70
2022/05/03 16:50:49;;;;;;;11.77;3.33;;;16.90;55.70;;;;;;9174333;19;20018;-69
2022/05/03 16:53:59;;;;;;;10.80;3.15;;;16.80;55.60;;;;;;9176145;19;20633;-70
2022/05/03 16:57:05;;;;;;;7.03;2.70;;;16.80;55.60;;;;;;9169920;19;20015;-71
2022/05/03 17:00:12;;;;;;;9.68;3.15;;;16.80;55.60;;;;;;9174272;19;20015;-71
2022/05/03 17:03:17;;;;;;;9.98;3.42;;;16.80;55.60;;;;;;9176295;19;20096;-72
2022/05/03 17:06:32;;;;;;;7.68;2.80;;;16.70;55.50;;;;;;9174103;19;20038;-70
2022/05/03 17:09:44;;;;;;;9.32;3.15;;;16.70;55.50;;;;;;9168064;19;20054;-69
2022/05/03 17:12:50;;;;;;;6.57;2.42;;;16.60;55.50;;;;;;9168438;19;20014;-70
2022/05/03 17:15:58;;;;;;;7.95;2.40;;;16.60;55.50;;;;;;9167368;19;20014;-71
2022/05/03 17:19:05;;;;;;;12.35;2.33;;;16.50;55.40;;;;;;9168742;19;20887;-70